Terminal Aerodrome Forecast
Issued by NWS Missoula, MT

Home | Current Version | Previous Version | Text Only | Print | Product List | Glossary On
Versions: 1 2 3 4 5 6 7 8 9 10 11 12 13 14 15 16 17 18 19 20
091
FTUS45 KMSO 070520
TAFMSO
TAF
KMSO 070520Z 0706/0806 11015G25KT P6SM SCT030 BKN035
     FM071200 11012KT P6SM SCT035 BKN050
     FM071800 12006KT P6SM SCT050=

USA.gov is the U.S. government's official web portal to all federal, state and local government web resources and services.